createdAt,value
2017-11-26T00:00:06.203Z,100780
2017-11-26T00:02:35.936Z,100788
2017-11-26T00:05:05.040Z,100796
2017-11-26T00:07:34.287Z,100794
2017-11-26T00:10:03.446Z,100796
2017-11-26T00:12:32.552Z,100797
2017-11-26T00:15:01.729Z,100798
2017-11-26T00:17:31.421Z,100806
2017-11-26T00:20:00.615Z,100805
2017-11-26T00:22:29.770Z,100808
2017-11-26T00:24:59.749Z,100807
2017-11-26T00:27:29.055Z,100806
2017-11-26T00:29:58.280Z,100807
2017-11-26T00:32:29.132Z,100803
2017-11-26T00:34:58.257Z,100805
2017-11-26T00:37:27.343Z,100802
2017-11-26T00:39:58.450Z,100801
2017-11-26T00:42:28.558Z,100805
2017-11-26T00:44:57.727Z,100810
2017-11-26T00:47:27.164Z,100811
2017-11-26T00:49:56.364Z,100810
2017-11-26T00:52:25.548Z,100811
2017-11-26T00:54:55.639Z,100809
2017-11-26T00:57:24.820Z,100812
2017-11-26T00:59:53.912Z,100819
2017-11-26T01:02:23.931Z,100811
2017-11-26T01:04:53.161Z,100817
2017-11-26T01:07:22.333Z,100811
2017-11-26T01:09:51.937Z,100817
2017-11-26T01:12:21.434Z,100812
2017-11-26T01:14:50.633Z,100810
2017-11-26T01:17:20.064Z,100806
2017-11-26T01:19:49.144Z,100811
2017-11-26T01:22:24.877Z,100811
2017-11-26T01:24:54.911Z,100814
2017-11-26T01:27:24.093Z,100812
2017-11-26T01:29:54.178Z,100803
2017-11-26T01:32:24.261Z,100801
2017-11-26T01:34:54.808Z,100802
2017-11-26T01:37:23.977Z,100795
2017-11-26T01:39:53.203Z,100794
2017-11-26T01:42:22.421Z,100795
2017-11-26T01:44:51.565Z,100798
2017-11-26T01:47:20.809Z,100797
2017-11-26T01:49:50.088Z,100804
2017-11-26T01:52:19.272Z,100807
2017-11-26T01:54:49.284Z,100808
2017-11-26T01:57:18.463Z,100811
2017-11-26T01:59:47.581Z,100812
2017-11-26T02:02:16.726Z,100813
2017-11-26T02:04:45.875Z,100807
2017-11-26T02:07:15.023Z,100807
2017-11-26T02:09:46.995Z,100803
2017-11-26T02:12:16.286Z,100805
2017-11-26T02:14:45.485Z,100807
2017-11-26T02:17:14.965Z,100811
2017-11-26T02:19:44.880Z,100809
2017-11-26T02:22:14.193Z,100814
2017-11-26T02:24:43.903Z,100813
2017-11-26T02:27:13.804Z,100809
2017-11-26T02:29:42.955Z,100815
2017-11-26T02:32:29.913Z,100812
2017-11-26T02:35:17.729Z,100819
2017-11-26T02:37:46.924Z,100813
2017-11-26T02:40:16.111Z,100805
2017-11-26T02:42:45.274Z,100802
2017-11-26T02:45:16.076Z,100809
2017-11-26T02:47:45.203Z,100800
2017-11-26T02:50:14.334Z,100808
2017-11-26T02:52:44.722Z,100797
2017-11-26T02:55:14.685Z,100799
2017-11-26T02:57:43.813Z,100798
2017-11-26T03:00:13.804Z,100807
2017-11-26T03:02:43.747Z,100796
2017-11-26T03:05:12.915Z,100793
2017-11-26T03:07:42.159Z,100793
2017-11-26T03:10:11.257Z,100789
2017-11-26T03:12:40.359Z,100792
2017-11-26T03:15:10.415Z,100799
2017-11-26T03:17:39.673Z,100796
2017-11-26T03:20:08.967Z,100800
2017-11-26T03:22:39.376Z,100799
2017-11-26T03:25:08.490Z,100806
2017-11-26T03:27:37.692Z,100804
2017-11-26T03:30:07.365Z,100817
2017-11-26T03:32:37.285Z,100807
2017-11-26T03:35:07.211Z,100803
2017-11-26T03:37:36.510Z,100807
2017-11-26T03:40:05.694Z,100799
2017-11-26T03:42:34.833Z,100808
2017-11-26T03:45:07.320Z,100803
2017-11-26T03:47:36.491Z,100800
2017-11-26T03:50:05.597Z,100802
2017-11-26T03:52:35.120Z,100797
2017-11-26T03:55:04.297Z,100794
2017-11-26T03:57:33.484Z,100798
2017-11-26T04:00:03.515Z,100791
2017-11-26T04:02:32.620Z,100792
2017-11-26T04:05:01.770Z,100794
2017-11-26T04:07:31.127Z,100788
2017-11-26T04:10:00.237Z,100784
2017-11-26T04:12:29.352Z,100779
2017-11-26T04:14:59.674Z,100780
2017-11-26T04:17:28.880Z,100774
2017-11-26T04:19:58.106Z,100760
2017-11-26T04:22:27.559Z,100763
2017-11-26T04:24:58.206Z,100759
2017-11-26T04:27:28.332Z,100767
2017-11-26T04:29:58.228Z,100751
2017-11-26T04:32:27.380Z,100754
2017-11-26T04:34:56.969Z,100759
2017-11-26T04:37:26.113Z,100756
2017-11-26T04:39:56.066Z,100753
2017-11-26T04:42:25.330Z,100762
2017-11-26T04:44:55.242Z,100757
2017-11-26T04:47:24.407Z,100762
2017-11-26T04:49:55.060Z,100767
2017-11-26T04:52:24.241Z,100768
2017-11-26T04:54:53.397Z,100769
2017-11-26T04:57:22.677Z,100775
2017-11-26T04:59:51.813Z,100779
2017-11-26T05:02:21.012Z,100780
2017-11-26T05:04:50.252Z,100778
2017-11-26T05:07:19.355Z,100781
2017-11-26T05:09:48.455Z,100780
2017-11-26T05:12:18.099Z,100770
2017-11-26T05:14:47.230Z,100760
2017-11-26T05:17:17.109Z,100759
2017-11-26T05:19:46.269Z,100771
2017-11-26T05:22:16.128Z,100768
2017-11-26T05:24:45.331Z,100761
2017-11-26T05:27:15.433Z,100770
2017-11-26T05:29:44.535Z,100767
2017-11-26T05:32:13.718Z,100769
2017-11-26T05:34:43.079Z,100769
2017-11-26T05:37:12.963Z,100768
2017-11-26T05:39:42.101Z,100772
2017-11-26T05:42:12.001Z,100766
2017-11-26T05:44:41.120Z,100775
2017-11-26T05:47:10.224Z,100766
2017-11-26T05:49:40.453Z,100770
2017-11-26T05:52:09.592Z,100771
2017-11-26T05:54:39.522Z,100780
2017-11-26T05:57:09.493Z,100776
2017-11-26T05:59:39.409Z,100786
2017-11-26T06:02:08.558Z,100793
2017-11-26T06:04:38.684Z,100793
2017-11-26T06:07:07.884Z,100797
2017-11-26T06:09:37.032Z,100795
2017-11-26T06:12:06.780Z,100797
2017-11-26T06:14:35.911Z,100790
2017-11-26T06:17:05.032Z,100788
2017-11-26T06:19:35.297Z,100790
2017-11-26T06:22:04.480Z,100790
2017-11-26T06:24:33.592Z,100794
2017-11-26T06:27:02.852Z,100795
2017-11-26T06:29:32.844Z,100798
2017-11-26T06:32:02.007Z,100797
2017-11-26T06:34:31.238Z,100801
2017-11-26T06:37:00.325Z,100799
2017-11-26T06:39:30.385Z,100801
2017-11-26T06:41:59.652Z,100795
2017-11-26T06:44:30.745Z,100792
2017-11-26T06:46:59.933Z,100794
2017-11-26T06:49:29.902Z,100795
2017-11-26T06:51:59.046Z,100801
2017-11-26T06:54:28.246Z,100795
2017-11-26T06:56:57.496Z,100801
2017-11-26T06:59:27.420Z,100811
2017-11-26T07:01:56.592Z,100816
2017-11-26T07:04:25.814Z,100821
2017-11-26T07:06:54.939Z,100823
2017-11-26T07:09:24.108Z,100819
2017-11-26T07:11:53.941Z,100821
2017-11-26T07:14:23.035Z,100817
2017-11-26T07:16:52.240Z,100813
2017-11-26T07:19:21.488Z,100815
2017-11-26T07:21:50.761Z,100810
2017-11-26T07:24:19.907Z,100825
2017-11-26T07:26:49.506Z,100821
2017-11-26T07:29:19.423Z,100831
2017-11-26T07:31:48.601Z,100836
2017-11-26T07:34:17.816Z,100829
2017-11-26T07:36:47.764Z,100843
2017-11-26T07:39:16.908Z,100837
2017-11-26T07:41:46.060Z,100828
2017-11-26T07:44:15.276Z,100833
2017-11-26T07:46:44.399Z,100838
2017-11-26T07:49:13.679Z,100844
2017-11-26T07:51:43.591Z,100844
2017-11-26T07:54:12.972Z,100842
2017-11-26T07:56:42.422Z,100840
2017-11-26T07:59:12.440Z,100832
2017-11-26T08:01:41.605Z,100831
2017-11-26T08:04:10.776Z,100828
2017-11-26T08:06:39.873Z,100835
2017-11-26T08:09:09.070Z,100840
2017-11-26T08:11:41.749Z,100833
2017-11-26T08:14:10.928Z,100829
2017-11-26T08:16:40.042Z,100838
2017-11-26T08:19:09.796Z,100829
2017-11-26T08:21:38.929Z,100827
2017-11-26T08:24:08.083Z,100837
2017-11-26T08:26:37.243Z,100835
2017-11-26T08:29:07.121Z,100834
2017-11-26T08:31:36.525Z,100842
2017-11-26T08:34:05.655Z,100840
2017-11-26T08:36:34.757Z,100837
2017-11-26T08:39:04.004Z,100846
2017-11-26T08:41:33.202Z,100837
2017-11-26T08:44:02.403Z,100845
2017-11-26T08:46:31.755Z,100847
2017-11-26T08:49:01.943Z,100858
2017-11-26T08:51:31.164Z,100847
2017-11-26T08:54:00.372Z,100845
2017-11-26T08:56:29.607Z,100856
2017-11-26T08:58:59.682Z,100855
2017-11-26T09:01:28.860Z,100860
2017-11-26T09:03:58.571Z,100865
2017-11-26T09:06:28.944Z,100861
2017-11-26T09:08:59.192Z,100862
2017-11-26T09:11:29.335Z,100863
2017-11-26T09:13:58.802Z,100859
2017-11-26T09:16:28.016Z,100846
2017-11-26T09:18:57.373Z,100843
2017-11-26T09:21:26.664Z,100848
2017-11-26T09:23:55.963Z,100848
2017-11-26T09:26:25.732Z,100855
2017-11-26T09:28:54.929Z,100852
2017-11-26T09:31:25.508Z,100849
2017-11-26T09:33:54.785Z,100857
2017-11-26T09:36:24.054Z,100847
2017-11-26T09:38:53.302Z,100850
2017-11-26T09:41:22.550Z,100860
2017-11-26T09:43:51.798Z,100862
2017-11-26T09:46:20.934Z,100862
2017-11-26T09:48:51.126Z,100865
2017-11-26T09:51:20.279Z,100855
2017-11-26T09:53:50.280Z,100863
2017-11-26T09:56:19.413Z,100864
2017-11-26T09:58:49.278Z,100867
2017-11-26T10:01:18.415Z,100867
2017-11-26T10:03:47.656Z,100862
2017-11-26T10:06:16.750Z,100858
2017-11-26T10:08:45.864Z,100856
2017-11-26T10:11:16.484Z,100854
2017-11-26T10:13:45.602Z,100864
2017-11-26T10:16:14.743Z,100862
2017-11-26T10:18:44.612Z,100856
2017-11-26T10:21:13.728Z,100858
2017-11-26T10:23:42.889Z,100859
2017-11-26T10:26:12.124Z,100854
2017-11-26T10:28:41.218Z,100852
2017-11-26T10:31:10.325Z,100847
2017-11-26T10:33:40.298Z,100850
2017-11-26T10:36:09.456Z,100837
2017-11-26T10:38:38.579Z,100839
2017-11-26T10:41:10.206Z,100844
2017-11-26T10:43:39.459Z,100848
2017-11-26T10:46:09.546Z,100851
2017-11-26T10:48:38.765Z,100843
2017-11-26T10:51:08.448Z,100848
2017-11-26T10:53:37.635Z,100846
2017-11-26T10:56:07.510Z,100839
2017-11-26T10:58:36.721Z,100848
2017-11-26T11:01:06.326Z,100852
2017-11-26T11:03:36.329Z,100856
2017-11-26T11:06:05.581Z,100842
2017-11-26T11:08:34.844Z,100850
2017-11-26T11:11:04.087Z,100846
2017-11-26T11:13:34.059Z,100843
2017-11-26T11:16:03.224Z,100862
2017-11-26T11:18:33.148Z,100847
2017-11-26T11:21:03.025Z,100845
2017-11-26T11:23:32.193Z,100852
2017-11-26T11:26:02.130Z,100856
2017-11-26T11:28:31.239Z,100861
2017-11-26T11:31:00.369Z,100868
2017-11-26T11:33:29.656Z,100872
2017-11-26T11:35:58.827Z,100872
2017-11-26T11:38:28.183Z,100889
2017-11-26T11:40:58.909Z,100889
2017-11-26T11:43:28.162Z,100879
2017-11-26T11:45:57.306Z,100873
2017-11-26T11:48:27.603Z,100873
2017-11-26T11:50:56.950Z,100879
2017-11-26T11:53:26.189Z,100883
2017-11-26T11:55:55.418Z,100883
2017-11-26T11:58:24.645Z,100882
2017-11-26T12:00:53.817Z,100880
2017-11-26T12:03:23.824Z,100882
2017-11-26T12:05:53.522Z,100887
2017-11-26T12:08:23.010Z,100875
2017-11-26T12:10:52.612Z,100880
2017-11-26T12:13:22.809Z,100884
2017-11-26T12:15:52.006Z,100886
2017-11-26T12:18:21.923Z,100889
2017-11-26T12:20:51.081Z,100890
2017-11-26T12:23:20.330Z,100892
2017-11-26T12:25:50.315Z,100883
2017-11-26T12:28:19.473Z,100890
2017-11-26T12:30:48.690Z,100884
2017-11-26T12:33:19.736Z,100890
2017-11-26T12:35:50.961Z,100887
2017-11-26T12:38:20.175Z,100887
2017-11-26T12:40:49.372Z,100894
2017-11-26T12:43:20.300Z,100888
2017-11-26T12:45:50.362Z,100897
2017-11-26T12:48:20.194Z,100889
2017-11-26T12:50:49.341Z,100891
2017-11-26T12:53:18.836Z,100892
2017-11-26T12:55:47.991Z,100887
2017-11-26T12:58:17.152Z,100888
2017-11-26T13:00:47.973Z,100891
2017-11-26T13:03:17.180Z,100895
2017-11-26T13:05:46.371Z,100894
2017-11-26T13:08:15.649Z,100899
2017-11-26T13:10:45.635Z,100893
2017-11-26T13:13:15.034Z,100893
2017-11-26T13:15:44.288Z,100907
2017-11-26T13:18:13.433Z,100906
2017-11-26T13:20:42.657Z,100904
2017-11-26T13:23:11.954Z,100903
2017-11-26T13:25:41.144Z,100903
2017-11-26T13:28:10.394Z,100906
2017-11-26T13:30:39.829Z,100906
2017-11-26T13:33:09.831Z,100898
2017-11-26T13:35:39.083Z,100901
2017-11-26T13:38:08.485Z,100906
2017-11-26T13:40:38.736Z,100902
2017-11-26T13:43:08.929Z,100903
2017-11-26T13:45:38.901Z,100908
2017-11-26T13:48:08.060Z,100911
2017-11-26T13:50:40.392Z,100911
2017-11-26T13:53:09.636Z,100915
2017-11-26T13:55:39.962Z,100914
2017-11-26T13:58:09.265Z,100909
2017-11-26T14:00:39.072Z,100912
2017-11-26T14:03:08.430Z,100905
2017-11-26T14:05:37.628Z,100913
2017-11-26T14:08:06.833Z,100910
2017-11-26T14:10:36.105Z,100913
2017-11-26T14:13:07.352Z,100912
2017-11-26T14:15:37.389Z,100915
2017-11-26T14:18:06.735Z,100916
2017-11-26T14:20:36.188Z,100920
2017-11-26T14:23:05.591Z,100927
2017-11-26T14:25:35.613Z,100930
2017-11-26T14:28:04.861Z,100929
2017-11-26T14:30:34.472Z,100936
2017-11-26T14:33:04.542Z,100942
2017-11-26T14:35:33.829Z,100940
2017-11-26T14:38:03.845Z,100942
2017-11-26T14:40:33.057Z,100945
2017-11-26T14:43:02.953Z,100946
2017-11-26T14:45:32.142Z,100947
2017-11-26T14:48:01.268Z,100942
2017-11-26T14:50:31.327Z,100942
2017-11-26T14:53:00.592Z,100929
2017-11-26T14:55:30.819Z,100930
2017-11-26T14:58:00.928Z,100933
2017-11-26T15:00:31.059Z,100932
2017-11-26T15:03:00.685Z,100926
2017-11-26T15:05:31.941Z,100939
2017-11-26T15:08:02.522Z,100943
2017-11-26T15:10:32.754Z,100945
2017-11-26T15:13:01.910Z,100946
2017-11-26T15:15:31.748Z,100939
2017-11-26T15:18:01.476Z,100945
2017-11-26T15:20:31.045Z,100951
2017-11-26T15:23:00.372Z,100957
2017-11-26T15:25:29.947Z,100956
2017-11-26T15:28:00.200Z,100955
2017-11-26T15:30:29.398Z,100953
2017-11-26T15:32:58.846Z,100958
2017-11-26T15:35:28.133Z,100962
2017-11-26T15:37:57.990Z,100963
2017-11-26T15:40:28.548Z,100965
2017-11-26T15:42:57.896Z,100967
2017-11-26T15:45:27.157Z,100973
2017-11-26T15:47:56.577Z,100967
2017-11-26T15:50:25.865Z,100965
2017-11-26T15:52:55.252Z,100960
2017-11-26T15:55:24.985Z,100967
2017-11-26T15:57:54.188Z,100970
2017-11-26T16:00:26.142Z,100982
2017-11-26T16:02:56.040Z,100973
2017-11-26T16:05:27.123Z,100978
2017-11-26T16:07:56.777Z,100978
2017-11-26T16:10:26.095Z,100996
2017-11-26T16:12:56.621Z,100992
2017-11-26T16:15:26.003Z,101003
2017-11-26T16:17:58.599Z,100996
2017-11-26T16:20:28.130Z,101000
2017-11-26T16:22:57.616Z,100993
2017-11-26T16:25:27.733Z,101002
2017-11-26T16:27:57.314Z,101001
2017-11-26T16:30:26.728Z,101008
2017-11-26T16:32:58.612Z,101019
2017-11-26T16:35:27.913Z,101030
2017-11-26T16:37:58.463Z,101020
2017-11-26T16:40:28.551Z,101024
2017-11-26T16:42:57.886Z,101010
2017-11-26T16:45:27.178Z,101011
2017-11-26T16:47:56.451Z,101015
2017-11-26T16:50:25.842Z,101011
2017-11-26T16:52:55.163Z,101012
2017-11-26T16:55:24.547Z,101014
2017-11-26T16:57:53.762Z,101010
2017-11-26T17:00:25.216Z,101010
2017-11-26T17:02:55.539Z,101015
2017-11-26T17:05:24.846Z,101018
2017-11-26T17:07:54.058Z,101017
2017-11-26T17:10:23.517Z,101016
2017-11-26T17:12:53.149Z,101015
2017-11-26T17:15:22.495Z,101020
2017-11-26T17:17:52.411Z,101025
2017-11-26T17:20:22.529Z,101031
2017-11-26T17:22:51.878Z,101032
2017-11-26T17:25:21.167Z,101030
2017-11-26T17:27:51.198Z,101034
2017-11-26T17:30:20.523Z,101028
2017-11-26T17:32:50.038Z,101034
2017-11-26T17:35:19.480Z,101034
2017-11-26T17:37:49.411Z,101045
2017-11-26T17:40:19.625Z,101039
2017-11-26T17:42:48.774Z,101040
2017-11-26T17:45:17.943Z,101036
2017-11-26T17:47:47.230Z,101037
2017-11-26T17:50:16.605Z,101044
2017-11-26T17:52:45.830Z,101036
2017-11-26T17:55:16.251Z,101034
2017-11-26T17:57:45.405Z,101036
2017-11-26T18:00:14.595Z,101039
2017-11-26T18:02:44.238Z,101044
2017-11-26T18:05:13.331Z,101044
2017-11-26T18:07:42.481Z,101045
2017-11-26T18:10:11.751Z,101039
2017-11-26T18:12:41.869Z,101042
2017-11-26T18:15:11.050Z,101047
2017-11-26T18:17:40.828Z,101055
2017-11-26T18:20:10.036Z,101060
2017-11-26T18:22:40.198Z,101069
2017-11-26T18:25:09.832Z,101070
2017-11-26T18:27:39.204Z,101060
2017-11-26T18:30:08.483Z,101061
2017-11-26T18:32:37.764Z,101071
2017-11-26T18:35:07.043Z,101076
2017-11-26T18:37:36.263Z,101070
2017-11-26T18:40:05.663Z,101076
2017-11-26T18:42:34.819Z,101074
2017-11-26T18:45:07.156Z,101081
2017-11-26T18:47:36.325Z,101083
2017-11-26T18:50:06.231Z,101085
2017-11-26T18:52:36.114Z,101087
2017-11-26T18:55:05.355Z,101091
2017-11-26T18:57:34.849Z,101092
2017-11-26T19:00:07.497Z,101096
2017-11-26T19:02:36.594Z,101094
2017-11-26T19:05:05.751Z,101102
2017-11-26T19:07:35.918Z,101109
2017-11-26T19:10:08.317Z,101115
2017-11-26T19:12:38.202Z,101120
2017-11-26T19:15:07.488Z,101137
2017-11-26T19:17:36.622Z,101142
2017-11-26T19:20:05.794Z,101144
2017-11-26T19:22:36.140Z,101156
2017-11-26T19:25:07.569Z,101138
2017-11-26T19:27:36.685Z,101138
2017-11-26T19:30:05.879Z,101128
2017-11-26T19:32:35.119Z,101124
2017-11-26T19:35:07.250Z,101113
2017-11-26T19:37:37.195Z,101114
2017-11-26T19:40:07.086Z,101122
2017-11-26T19:42:36.226Z,101134
2017-11-26T19:45:05.415Z,101138
2017-11-26T19:47:34.498Z,101134
2017-11-26T19:50:04.517Z,101125
2017-11-26T19:52:34.587Z,101115
2017-11-26T19:55:04.030Z,101124
2017-11-26T19:57:34.086Z,101125
2017-11-26T20:00:04.134Z,101119
2017-11-26T20:02:34.304Z,101108
2017-11-26T20:05:04.393Z,101114
2017-11-26T20:07:35.208Z,101125
2017-11-26T20:10:04.409Z,101135
2017-11-26T20:12:33.631Z,101133
2017-11-26T20:15:04.422Z,101133
2017-11-26T20:17:34.378Z,101130
2017-11-26T20:20:03.808Z,101123
2017-11-26T20:22:34.951Z,101131
2017-11-26T20:25:06.429Z,101130
2017-11-26T20:27:37.536Z,101129
2017-11-26T20:30:07.462Z,101120
2017-11-26T20:32:36.604Z,101125
2017-11-26T20:35:05.801Z,101130
2017-11-26T20:37:35.007Z,101124
2017-11-26T20:40:04.345Z,101133
2017-11-26T20:42:33.682Z,101135
2017-11-26T20:45:02.867Z,101138
2017-11-26T20:47:32.037Z,101132
2017-11-26T20:50:01.366Z,101129
2017-11-26T20:52:30.515Z,101131
2017-11-26T20:54:59.820Z,101131
2017-11-26T20:57:29.508Z,101129
2017-11-26T20:59:59.482Z,101131
2017-11-26T21:02:28.736Z,101132
2017-11-26T21:04:57.997Z,101137
2017-11-26T21:07:27.174Z,101136
2017-11-26T21:09:56.996Z,101148
2017-11-26T21:12:26.320Z,101148
2017-11-26T21:14:55.545Z,101145
2017-11-26T21:17:24.725Z,101146
2017-11-26T21:19:54.889Z,101144
2017-11-26T21:22:25.086Z,101150
2017-11-26T21:24:57.708Z,101145
2017-11-26T21:27:27.863Z,101133
2017-11-26T21:29:58.045Z,101151
2017-11-26T21:32:29.534Z,101153
2017-11-26T21:34:58.908Z,101152
2017-11-26T21:37:28.153Z,101160
2017-11-26T21:39:58.098Z,101163
2017-11-26T21:42:27.421Z,101163
2017-11-26T21:44:56.796Z,101161
2017-11-26T21:47:28.054Z,101160
2017-11-26T21:49:57.315Z,101147
2017-11-26T21:52:27.579Z,101158
2017-11-26T21:54:57.798Z,101148
2017-11-26T21:57:27.450Z,101146
2017-11-26T21:59:57.427Z,101135
2017-11-26T22:02:27.101Z,101136
2017-11-26T22:04:56.711Z,101149
2017-11-26T22:07:26.420Z,101159
2017-11-26T22:09:55.723Z,101149
2017-11-26T22:12:24.970Z,101158
2017-11-26T22:14:54.590Z,101173
2017-11-26T22:17:25.632Z,101178
2017-11-26T22:19:55.280Z,101183
2017-11-26T22:22:24.618Z,101179
2017-11-26T22:24:54.165Z,101180
2017-11-26T22:27:23.413Z,101182
2017-11-26T22:29:52.622Z,101174
2017-11-26T22:32:21.857Z,101169
2017-11-26T22:34:51.012Z,101169
2017-11-26T22:37:20.983Z,101167
2017-11-26T22:39:51.865Z,101169
2017-11-26T22:42:21.094Z,101169
2017-11-26T22:44:50.367Z,101163
2017-11-26T22:47:20.281Z,101151
2017-11-26T22:49:50.468Z,101159
2017-11-26T22:52:20.626Z,101147
2017-11-26T22:54:50.229Z,101160
2017-11-26T22:57:19.372Z,101153
2017-11-26T22:59:48.522Z,101147
2017-11-26T23:02:17.642Z,101144
2017-11-26T23:04:46.924Z,101149
2017-11-26T23:07:16.063Z,101145
2017-11-26T23:09:46.032Z,101152
2017-11-26T23:12:15.604Z,101158
2017-11-26T23:14:44.736Z,101166
2017-11-26T23:17:14.633Z,101156
2017-11-26T23:19:43.761Z,101165
2017-11-26T23:22:12.960Z,101165
2017-11-26T23:24:42.243Z,101164
2017-11-26T23:27:11.457Z,101159
2017-11-26T23:29:42.206Z,101155
2017-11-26T23:32:12.102Z,101157
2017-11-26T23:34:41.265Z,101158
2017-11-26T23:37:10.372Z,101158
2017-11-26T23:39:40.119Z,101153
2017-11-26T23:42:10.959Z,101153
2017-11-26T23:44:40.311Z,101150
2017-11-26T23:47:09.411Z,101156
2017-11-26T23:49:38.662Z,101156
2017-11-26T23:52:08.959Z,101167
2017-11-26T23:54:38.081Z,101174
2017-11-26T23:57:07.177Z,101176
2017-11-26T23:59:37.195Z,101175
